sensor_id;sensor_type;location;lat;lon;timestamp;P1;durP1;ratioP1;P2;durP2;ratioP2
10537;SDS011;5317;49.048;8.468;2022-12-16T00:02:10;4.57;;;3.80;;
10537;SDS011;5317;49.048;8.468;2022-12-16T00:04:37;4.33;;;3.93;;
10537;SDS011;5317;49.048;8.468;2022-12-16T00:07:04;4.40;;;4.00;;
10537;SDS011;5317;49.048;8.468;2022-12-16T00:09:31;4.20;;;3.80;;
10537;SDS011;5317;49.048;8.468;2022-12-16T00:11:59;4.43;;;4.03;;
10537;SDS011;5317;49.048;8.468;2022-12-16T00:14:26;4.90;;;4.50;;
10537;SDS011;5317;49.048;8.468;2022-12-16T00:16:53;4.33;;;3.93;;
10537;SDS011;5317;49.048;8.468;2022-12-16T00:19:22;4.50;;;4.10;;
10537;SDS011;5317;49.048;8.468;2022-12-16T00:21:49;4.80;;;4.30;;
10537;SDS011;5317;49.048;8.468;2022-12-16T00:24:17;4.50;;;4.10;;
10537;SDS011;5317;49.048;8.468;2022-12-16T00:26:44;4.27;;;3.87;;
10537;SDS011;5317;49.048;8.468;2022-12-16T00:29:11;4.57;;;4.17;;
10537;SDS011;5317;49.048;8.468;2022-12-16T00:31:38;4.50;;;4.10;;
10537;SDS011;5317;49.048;8.468;2022-12-16T00:34:06;4.20;;;3.80;;
10537;SDS011;5317;49.048;8.468;2022-12-16T00:36:34;4.27;;;3.87;;
10537;SDS011;5317;49.048;8.468;2022-12-16T00:39:02;4.00;;;3.70;;
10537;SDS011;5317;49.048;8.468;2022-12-16T00:41:29;4.93;;;4.17;;
10537;SDS011;5317;49.048;8.468;2022-12-16T00:43:56;4.30;;;3.90;;
10537;SDS011;5317;49.048;8.468;2022-12-16T00:46:23;4.40;;;4.00;;
10537;SDS011;5317;49.048;8.468;2022-12-16T00:48:51;4.60;;;4.20;;
10537;SDS011;5317;49.048;8.468;2022-12-16T00:51:18;4.63;;;4.20;;
10537;SDS011;5317;49.048;8.468;2022-12-16T00:53:47;4.03;;;3.70;;
10537;SDS011;5317;49.048;8.468;2022-12-16T00:56:14;5.30;;;4.20;;
10537;SDS011;5317;49.048;8.468;2022-12-16T00:58:42;4.83;;;4.33;;
10537;SDS011;5317;49.048;8.468;2022-12-16T01:01:10;4.83;;;4.13;;
10537;SDS011;5317;49.048;8.468;2022-12-16T01:03:37;3.83;;;3.50;;
10537;SDS011;5317;49.048;8.468;2022-12-16T01:06:09;4.30;;;3.70;;
10537;SDS011;5317;49.048;8.468;2022-12-16T01:08:39;4.20;;;3.80;;
10537;SDS011;5317;49.048;8.468;2022-12-16T01:11:13;4.07;;;3.77;;
10537;SDS011;5317;49.048;8.468;2022-12-16T01:13:42;4.40;;;4.00;;
10537;SDS011;5317;49.048;8.468;2022-12-16T01:16:10;4.20;;;3.80;;
10537;SDS011;5317;49.048;8.468;2022-12-16T01:18:38;4.60;;;4.20;;
10537;SDS011;5317;49.048;8.468;2022-12-16T01:21:06;3.77;;;3.47;;
10537;SDS011;5317;49.048;8.468;2022-12-16T01:23:38;4.60;;;4.20;;
10537;SDS011;5317;49.048;8.468;2022-12-16T01:26:06;3.77;;;3.43;;
10537;SDS011;5317;49.048;8.468;2022-12-16T01:28:36;4.13;;;3.80;;
10537;SDS011;5317;49.048;8.468;2022-12-16T01:31:03;4.23;;;3.83;;
10537;SDS011;5317;49.048;8.468;2022-12-16T01:33:31;4.40;;;4.00;;
10537;SDS011;5317;49.048;8.468;2022-12-16T01:35:59;4.00;;;3.70;;
10537;SDS011;5317;49.048;8.468;2022-12-16T01:38:28;3.90;;;3.60;;
10537;SDS011;5317;49.048;8.468;2022-12-16T01:40:57;4.30;;;3.90;;
10537;SDS011;5317;49.048;8.468;2022-12-16T01:43:25;4.17;;;3.77;;
10537;SDS011;5317;49.048;8.468;2022-12-16T01:45:57;4.30;;;3.90;;
10537;SDS011;5317;49.048;8.468;2022-12-16T01:48:37;4.47;;;3.60;;
10537;SDS011;5317;49.048;8.468;2022-12-16T01:51:12;4.60;;;4.20;;
10537;SDS011;5317;49.048;8.468;2022-12-16T01:53:48;4.23;;;3.83;;
10537;SDS011;5317;49.048;8.468;2022-12-16T01:56:20;4.60;;;3.60;;
10537;SDS011;5317;49.048;8.468;2022-12-16T01:58:52;4.27;;;3.87;;
10537;SDS011;5317;49.048;8.468;2022-12-16T02:01:22;4.73;;;3.77;;
10537;SDS011;5317;49.048;8.468;2022-12-16T02:03:50;4.27;;;3.97;;
10537;SDS011;5317;49.048;8.468;2022-12-16T02:06:21;4.10;;;3.70;;
10537;SDS011;5317;49.048;8.468;2022-12-16T02:08:49;4.30;;;3.90;;
10537;SDS011;5317;49.048;8.468;2022-12-16T02:14:35;4.00;;;3.70;;
10537;SDS011;5317;49.048;8.468;2022-12-16T02:17:21;4.10;;;3.67;;
10537;SDS011;5317;49.048;8.468;2022-12-16T02:20:03;4.03;;;3.63;;
10537;SDS011;5317;49.048;8.468;2022-12-16T02:23:09;4.30;;;3.90;;
10537;SDS011;5317;49.048;8.468;2022-12-16T02:26:16;4.40;;;3.90;;
10537;SDS011;5317;49.048;8.468;2022-12-16T02:29:28;3.80;;;3.50;;
10537;SDS011;5317;49.048;8.468;2022-12-16T02:32:31;4.23;;;3.83;;
10537;SDS011;5317;49.048;8.468;2022-12-16T02:35:17;4.40;;;3.97;;
10537;SDS011;5317;49.048;8.468;2022-12-16T02:37:55;3.87;;;3.53;;
10537;SDS011;5317;49.048;8.468;2022-12-16T02:40:41;4.30;;;3.90;;
10537;SDS011;5317;49.048;8.468;2022-12-16T02:43:18;3.70;;;3.40;;
10537;SDS011;5317;49.048;8.468;2022-12-16T02:46:03;4.17;;;3.77;;
10537;SDS011;5317;49.048;8.468;2022-12-16T02:48:35;3.90;;;3.60;;
10537;SDS011;5317;49.048;8.468;2022-12-16T02:51:02;3.90;;;3.60;;
10537;SDS011;5317;49.048;8.468;2022-12-16T02:53:30;3.87;;;3.57;;
10537;SDS011;5317;49.048;8.468;2022-12-16T02:56:04;4.00;;;3.60;;
10537;SDS011;5317;49.048;8.468;2022-12-16T02:58:56;3.60;;;3.30;;
10537;SDS011;5317;49.048;8.468;2022-12-16T03:01:41;3.83;;;3.50;;
10537;SDS011;5317;49.048;8.468;2022-12-16T03:04:26;4.10;;;3.70;;
10537;SDS011;5317;49.048;8.468;2022-12-16T03:07:02;3.70;;;3.20;;
10537;SDS011;5317;49.048;8.468;2022-12-16T03:09:34;3.97;;;3.57;;
10537;SDS011;5317;49.048;8.468;2022-12-16T03:12:05;4.57;;;3.80;;
10537;SDS011;5317;49.048;8.468;2022-12-16T03:14:40;3.70;;;3.40;;
10537;SDS011;5317;49.048;8.468;2022-12-16T03:17:12;3.80;;;3.50;;
10537;SDS011;5317;49.048;8.468;2022-12-16T03:19:44;3.67;;;3.37;;
10537;SDS011;5317;49.048;8.468;2022-12-16T03:22:20;3.70;;;3.40;;
10537;SDS011;5317;49.048;8.468;2022-12-16T03:24:53;3.90;;;3.60;;
10537;SDS011;5317;49.048;8.468;2022-12-16T03:27:23;3.83;;;3.53;;
10537;SDS011;5317;49.048;8.468;2022-12-16T03:30:01;3.87;;;3.57;;
10537;SDS011;5317;49.048;8.468;2022-12-16T03:32:34;3.73;;;3.43;;
10537;SDS011;5317;49.048;8.468;2022-12-16T03:35:10;3.90;;;3.50;;
10537;SDS011;5317;49.048;8.468;2022-12-16T03:37:45;3.87;;;3.50;;
10537;SDS011;5317;49.048;8.468;2022-12-16T03:40:17;3.63;;;3.33;;
10537;SDS011;5317;49.048;8.468;2022-12-16T03:42:47;3.00;;;2.80;;
10537;SDS011;5317;49.048;8.468;2022-12-16T03:45:19;3.83;;;3.50;;
10537;SDS011;5317;49.048;8.468;2022-12-16T03:47:52;3.83;;;3.50;;
10537;SDS011;5317;49.048;8.468;2022-12-16T03:50:25;4.00;;;3.57;;
10537;SDS011;5317;49.048;8.468;2022-12-16T03:52:56;3.60;;;3.30;;
10537;SDS011;5317;49.048;8.468;2022-12-16T03:55:24;3.90;;;3.60;;
10537;SDS011;5317;49.048;8.468;2022-12-16T03:57:51;3.60;;;3.30;;
10537;SDS011;5317;49.048;8.468;2022-12-16T04:00:19;3.40;;;3.10;;
10537;SDS011;5317;49.048;8.468;2022-12-16T04:02:47;3.80;;;3.50;;
10537;SDS011;5317;49.048;8.468;2022-12-16T04:05:14;3.80;;;3.50;;
10537;SDS011;5317;49.048;8.468;2022-12-16T04:07:43;3.87;;;3.50;;
10537;SDS011;5317;49.048;8.468;2022-12-16T04:10:10;3.70;;;3.40;;
10537;SDS011;5317;49.048;8.468;2022-12-16T04:12:37;3.70;;;3.40;;
10537;SDS011;5317;49.048;8.468;2022-12-16T04:15:22;3.60;;;3.30;;
10537;SDS011;5317;49.048;8.468;2022-12-16T04:18:07;3.70;;;3.20;;
10537;SDS011;5317;49.048;8.468;2022-12-16T04:20:59;3.93;;;3.60;;
10537;SDS011;5317;49.048;8.468;2022-12-16T04:23:49;3.47;;;3.23;;
10537;SDS011;5317;49.048;8.468;2022-12-16T04:26:39;3.97;;;3.67;;
10537;SDS011;5317;49.048;8.468;2022-12-16T04:29:21;3.40;;;3.10;;
10537;SDS011;5317;49.048;8.468;2022-12-16T04:31:48;4.00;;;3.60;;
10537;SDS011;5317;49.048;8.468;2022-12-16T04:34:17;3.80;;;3.40;;
10537;SDS011;5317;49.048;8.468;2022-12-16T04:36:51;3.60;;;3.30;;
10537;SDS011;5317;49.048;8.468;2022-12-16T04:39:38;3.30;;;3.00;;
10537;SDS011;5317;49.048;8.468;2022-12-16T04:42:22;3.90;;;3.60;;
10537;SDS011;5317;49.048;8.468;2022-12-16T04:45:07;3.77;;;3.47;;
10537;SDS011;5317;49.048;8.468;2022-12-16T04:47:53;4.50;;;3.50;;
10537;SDS011;5317;49.048;8.468;2022-12-16T04:50:38;3.70;;;3.40;;
10537;SDS011;5317;49.048;8.468;2022-12-16T04:53:23;3.67;;;3.33;;
10537;SDS011;5317;49.048;8.468;2022-12-16T04:56:10;3.83;;;3.53;;
10537;SDS011;5317;49.048;8.468;2022-12-16T04:58:55;3.40;;;3.10;;
10537;SDS011;5317;49.048;8.468;2022-12-16T05:01:40;3.70;;;3.40;;
10537;SDS011;5317;49.048;8.468;2022-12-16T05:04:24;3.20;;;2.90;;
10537;SDS011;5317;49.048;8.468;2022-12-16T05:07:09;3.20;;;2.90;;
10537;SDS011;5317;49.048;8.468;2022-12-16T05:09:54;3.63;;;3.33;;
10537;SDS011;5317;49.048;8.468;2022-12-16T05:12:40;3.50;;;3.20;;
10537;SDS011;5317;49.048;8.468;2022-12-16T05:15:24;4.07;;;3.57;;
10537;SDS011;5317;49.048;8.468;2022-12-16T05:18:09;3.17;;;2.87;;
10537;SDS011;5317;49.048;8.468;2022-12-16T05:20:56;3.60;;;3.30;;
10537;SDS011;5317;49.048;8.468;2022-12-16T05:23:41;3.17;;;2.87;;
10537;SDS011;5317;49.048;8.468;2022-12-16T05:26:26;3.43;;;3.13;;
10537;SDS011;5317;49.048;8.468;2022-12-16T05:29:12;3.53;;;3.23;;
10537;SDS011;5317;49.048;8.468;2022-12-16T05:31:57;3.50;;;3.20;;
10537;SDS011;5317;49.048;8.468;2022-12-16T05:34:42;3.70;;;3.37;;
10537;SDS011;5317;49.048;8.468;2022-12-16T05:37:26;3.47;;;3.17;;
10537;SDS011;5317;49.048;8.468;2022-12-16T05:40:11;3.67;;;3.33;;
10537;SDS011;5317;49.048;8.468;2022-12-16T05:42:56;3.20;;;2.90;;
10537;SDS011;5317;49.048;8.468;2022-12-16T05:45:42;3.13;;;2.90;;
10537;SDS011;5317;49.048;8.468;2022-12-16T05:48:26;3.50;;;3.20;;
10537;SDS011;5317;49.048;8.468;2022-12-16T05:51:11;3.40;;;3.10;;
10537;SDS011;5317;49.048;8.468;2022-12-16T05:53:56;3.57;;;3.27;;
10537;SDS011;5317;49.048;8.468;2022-12-16T05:56:41;3.47;;;3.17;;
10537;SDS011;5317;49.048;8.468;2022-12-16T05:59:25;3.50;;;3.20;;
10537;SDS011;5317;49.048;8.468;2022-12-16T06:02:11;3.57;;;3.27;;
10537;SDS011;5317;49.048;8.468;2022-12-16T06:04:56;3.90;;;3.50;;
10537;SDS011;5317;49.048;8.468;2022-12-16T06:07:41;3.10;;;2.80;;
10537;SDS011;5317;49.048;8.468;2022-12-16T06:10:25;3.17;;;2.87;;
10537;SDS011;5317;49.048;8.468;2022-12-16T06:13:10;3.70;;;3.40;;
10537;SDS011;5317;49.048;8.468;2022-12-16T06:15:54;3.47;;;3.17;;
10537;SDS011;5317;49.048;8.468;2022-12-16T06:18:40;3.50;;;3.20;;
10537;SDS011;5317;49.048;8.468;2022-12-16T06:21:25;3.83;;;3.53;;
10537;SDS011;5317;49.048;8.468;2022-12-16T06:24:10;3.50;;;3.20;;
10537;SDS011;5317;49.048;8.468;2022-12-16T06:26:54;3.40;;;3.10;;
10537;SDS011;5317;49.048;8.468;2022-12-16T06:29:39;3.73;;;3.40;;
10537;SDS011;5317;49.048;8.468;2022-12-16T06:32:24;3.60;;;3.23;;
10537;SDS011;5317;49.048;8.468;2022-12-16T06:35:10;3.97;;;3.57;;
10537;SDS011;5317;49.048;8.468;2022-12-16T06:37:55;3.23;;;2.93;;
10537;SDS011;5317;49.048;8.468;2022-12-16T06:40:39;3.47;;;3.17;;
10537;SDS011;5317;49.048;8.468;2022-12-16T06:43:24;3.13;;;2.83;;
10537;SDS011;5317;49.048;8.468;2022-12-16T06:46:08;3.77;;;3.13;;
10537;SDS011;5317;49.048;8.468;2022-12-16T06:48:53;3.77;;;3.47;;
10537;SDS011;5317;49.048;8.468;2022-12-16T06:51:39;3.23;;;2.93;;
10537;SDS011;5317;49.048;8.468;2022-12-16T06:54:24;3.30;;;3.00;;
10537;SDS011;5317;49.048;8.468;2022-12-16T06:57:09;3.40;;;3.10;;
10537;SDS011;5317;49.048;8.468;2022-12-16T06:59:53;3.17;;;2.87;;
10537;SDS011;5317;49.048;8.468;2022-12-16T07:02:38;3.50;;;3.20;;
10537;SDS011;5317;49.048;8.468;2022-12-16T07:05:23;3.17;;;2.87;;
10537;SDS011;5317;49.048;8.468;2022-12-16T07:08:09;3.43;;;3.13;;
10537;SDS011;5317;49.048;8.468;2022-12-16T07:10:53;4.43;;;2.97;;
10537;SDS011;5317;49.048;8.468;2022-12-16T07:13:38;3.37;;;3.07;;
10537;SDS011;5317;49.048;8.468;2022-12-16T07:16:23;3.27;;;3.00;;
10537;SDS011;5317;49.048;8.468;2022-12-16T07:19:04;3.50;;;3.07;;
10537;SDS011;5317;49.048;8.468;2022-12-16T07:21:45;3.70;;;3.30;;
10537;SDS011;5317;49.048;8.468;2022-12-16T07:24:31;4.27;;;3.20;;
10537;SDS011;5317;49.048;8.468;2022-12-16T07:27:16;5.30;;;3.57;;
10537;SDS011;5317;49.048;8.468;2022-12-16T07:30:00;3.40;;;2.93;;
10537;SDS011;5317;49.048;8.468;2022-12-16T07:32:48;4.30;;;3.00;;
10537;SDS011;5317;49.048;8.468;2022-12-16T07:35:32;4.03;;;3.13;;
10537;SDS011;5317;49.048;8.468;2022-12-16T07:38:17;3.77;;;3.30;;
10537;SDS011;5317;49.048;8.468;2022-12-16T07:41:03;4.90;;;3.57;;
10537;SDS011;5317;49.048;8.468;2022-12-16T07:43:48;4.03;;;3.40;;
10537;SDS011;5317;49.048;8.468;2022-12-16T07:46:33;3.40;;;2.90;;
10537;SDS011;5317;49.048;8.468;2022-12-16T07:49:18;4.67;;;3.17;;
10537;SDS011;5317;49.048;8.468;2022-12-16T07:52:03;3.73;;;3.20;;
10537;SDS011;5317;49.048;8.468;2022-12-16T07:54:49;3.60;;;3.30;;
10537;SDS011;5317;49.048;8.468;2022-12-16T07:57:35;3.30;;;2.83;;
10537;SDS011;5317;49.048;8.468;2022-12-16T08:00:20;5.27;;;2.90;;
10537;SDS011;5317;49.048;8.468;2022-12-16T08:03:04;4.40;;;3.00;;
10537;SDS011;5317;49.048;8.468;2022-12-16T08:05:49;5.77;;;4.30;;
10537;SDS011;5317;49.048;8.468;2022-12-16T08:08:34;3.20;;;2.87;;
10537;SDS011;5317;49.048;8.468;2022-12-16T08:11:18;3.40;;;2.83;;
10537;SDS011;5317;49.048;8.468;2022-12-16T08:14:05;4.47;;;2.77;;
10537;SDS011;5317;49.048;8.468;2022-12-16T08:16:49;3.70;;;3.27;;
10537;SDS011;5317;49.048;8.468;2022-12-16T08:19:34;3.93;;;3.50;;
10537;SDS011;5317;49.048;8.468;2022-12-16T08:22:19;3.77;;;3.47;;
10537;SDS011;5317;49.048;8.468;2022-12-16T08:25:03;3.40;;;3.10;;
10537;SDS011;5317;49.048;8.468;2022-12-16T08:27:52;4.57;;;3.10;;
10537;SDS011;5317;49.048;8.468;2022-12-16T08:30:39;3.53;;;3.23;;
10537;SDS011;5317;49.048;8.468;2022-12-16T08:33:31;3.67;;;3.17;;
10537;SDS011;5317;49.048;8.468;2022-12-16T08:36:16;3.33;;;3.00;;
10537;SDS011;5317;49.048;8.468;2022-12-16T08:39:00;3.37;;;3.07;;
10537;SDS011;5317;49.048;8.468;2022-12-16T08:41:45;3.97;;;3.10;;
10537;SDS011;5317;49.048;8.468;2022-12-16T08:44:29;3.30;;;3.00;;
10537;SDS011;5317;49.048;8.468;2022-12-16T08:47:15;4.27;;;3.67;;
10537;SDS011;5317;49.048;8.468;2022-12-16T08:50:00;3.60;;;3.30;;
10537;SDS011;5317;49.048;8.468;2022-12-16T08:52:45;3.50;;;3.20;;
10537;SDS011;5317;49.048;8.468;2022-12-16T08:55:30;3.63;;;3.30;;
10537;SDS011;5317;49.048;8.468;2022-12-16T08:58:14;3.57;;;3.10;;
10537;SDS011;5317;49.048;8.468;2022-12-16T09:00:59;3.83;;;3.07;;
10537;SDS011;5317;49.048;8.468;2022-12-16T09:03:46;3.60;;;2.90;;
10537;SDS011;5317;49.048;8.468;2022-12-16T09:06:31;3.57;;;3.27;;
10537;SDS011;5317;49.048;8.468;2022-12-16T09:09:15;3.33;;;3.03;;
10537;SDS011;5317;49.048;8.468;2022-12-16T09:12:00;3.53;;;3.23;;
10537;SDS011;5317;49.048;8.468;2022-12-16T09:14:45;5.60;;;3.63;;
10537;SDS011;5317;49.048;8.468;2022-12-16T09:17:29;3.53;;;3.23;;
10537;SDS011;5317;49.048;8.468;2022-12-16T09:20:16;4.20;;;3.63;;
10537;SDS011;5317;49.048;8.468;2022-12-16T09:23:00;3.23;;;2.97;;
10537;SDS011;5317;49.048;8.468;2022-12-16T09:25:45;3.43;;;3.10;;
10537;SDS011;5317;49.048;8.468;2022-12-16T09:28:30;3.63;;;3.33;;
10537;SDS011;5317;49.048;8.468;2022-12-16T09:31:14;4.70;;;3.40;;
10537;SDS011;5317;49.048;8.468;2022-12-16T09:33:59;3.40;;;3.10;;
10537;SDS011;5317;49.048;8.468;2022-12-16T09:36:46;3.30;;;2.90;;
10537;SDS011;5317;49.048;8.468;2022-12-16T09:39:30;3.20;;;2.90;;
10537;SDS011;5317;49.048;8.468;2022-12-16T09:42:17;3.30;;;3.00;;
10537;SDS011;5317;49.048;8.468;2022-12-16T09:45:32;3.97;;;3.50;;
10537;SDS011;5317;49.048;8.468;2022-12-16T09:48:30;3.53;;;2.87;;
10537;SDS011;5317;49.048;8.468;2022-12-16T09:51:26;3.77;;;3.37;;
10537;SDS011;5317;49.048;8.468;2022-12-16T09:54:15;3.30;;;3.00;;
10537;SDS011;5317;49.048;8.468;2022-12-16T09:57:04;3.70;;;3.27;;
10537;SDS011;5317;49.048;8.468;2022-12-16T09:59:52;3.80;;;3.40;;
10537;SDS011;5317;49.048;8.468;2022-12-16T10:02:43;3.60;;;3.30;;
10537;SDS011;5317;49.048;8.468;2022-12-16T10:05:32;3.30;;;3.00;;
10537;SDS011;5317;49.048;8.468;2022-12-16T10:08:38;3.40;;;3.10;;
10537;SDS011;5317;49.048;8.468;2022-12-16T10:11:37;3.70;;;3.30;;
10537;SDS011;5317;49.048;8.468;2022-12-16T10:14:34;3.30;;;3.00;;
10537;SDS011;5317;49.048;8.468;2022-12-16T10:17:27;3.03;;;2.80;;
10537;SDS011;5317;49.048;8.468;2022-12-16T10:20:12;4.57;;;3.37;;
10537;SDS011;5317;49.048;8.468;2022-12-16T10:23:17;3.80;;;3.17;;
10537;SDS011;5317;49.048;8.468;2022-12-16T10:26:12;3.27;;;2.97;;
10537;SDS011;5317;49.048;8.468;2022-12-16T10:29:11;3.30;;;2.90;;
10537;SDS011;5317;49.048;8.468;2022-12-16T10:32:07;3.17;;;2.87;;
10537;SDS011;5317;49.048;8.468;2022-12-16T10:35:01;3.93;;;3.23;;
10537;SDS011;5317;49.048;8.468;2022-12-16T10:38:02;2.90;;;2.67;;
10537;SDS011;5317;49.048;8.468;2022-12-16T10:40:57;3.30;;;3.00;;
10537;SDS011;5317;49.048;8.468;2022-12-16T10:43:45;3.17;;;2.90;;
10537;SDS011;5317;49.048;8.468;2022-12-16T10:46:33;3.10;;;2.80;;
10537;SDS011;5317;49.048;8.468;2022-12-16T10:49:18;3.10;;;2.90;;
10537;SDS011;5317;49.048;8.468;2022-12-16T10:52:04;3.47;;;3.17;;
10537;SDS011;5317;49.048;8.468;2022-12-16T10:54:51;3.33;;;3.03;;
10537;SDS011;5317;49.048;8.468;2022-12-16T10:57:47;3.40;;;3.10;;
10537;SDS011;5317;49.048;8.468;2022-12-16T11:00:48;4.20;;;3.13;;
10537;SDS011;5317;49.048;8.468;2022-12-16T11:03:37;3.40;;;3.10;;
10537;SDS011;5317;49.048;8.468;2022-12-16T11:06:24;3.53;;;3.23;;
10537;SDS011;5317;49.048;8.468;2022-12-16T11:09:17;3.50;;;3.20;;
10537;SDS011;5317;49.048;8.468;2022-12-16T11:12:13;3.23;;;2.93;;
10537;SDS011;5317;49.048;8.468;2022-12-16T11:15:18;3.20;;;2.90;;
10537;SDS011;5317;49.048;8.468;2022-12-16T11:18:08;2.70;;;2.50;;
10537;SDS011;5317;49.048;8.468;2022-12-16T11:21:07;3.47;;;3.17;;
10537;SDS011;5317;49.048;8.468;2022-12-16T11:24:03;3.63;;;3.30;;
10537;SDS011;5317;49.048;8.468;2022-12-16T11:27:00;3.30;;;3.00;;
10537;SDS011;5317;49.048;8.468;2022-12-16T11:29:48;3.50;;;3.20;;
10537;SDS011;5317;49.048;8.468;2022-12-16T11:32:41;2.80;;;2.60;;
10537;SDS011;5317;49.048;8.468;2022-12-16T11:35:31;3.10;;;2.90;;
10537;SDS011;5317;49.048;8.468;2022-12-16T11:38:22;3.30;;;3.00;;
10537;SDS011;5317;49.048;8.468;2022-12-16T11:41:23;3.30;;;3.00;;
10537;SDS011;5317;49.048;8.468;2022-12-16T11:44:15;4.23;;;3.00;;
10537;SDS011;5317;49.048;8.468;2022-12-16T11:47:07;2.97;;;2.77;;
10537;SDS011;5317;49.048;8.468;2022-12-16T11:50:06;4.80;;;4.30;;
10537;SDS011;5317;49.048;8.468;2022-12-16T11:52:57;3.50;;;3.20;;
10537;SDS011;5317;49.048;8.468;2022-12-16T11:55:46;3.47;;;3.17;;
10537;SDS011;5317;49.048;8.468;2022-12-16T11:58:38;3.50;;;3.20;;
10537;SDS011;5317;49.048;8.468;2022-12-16T12:01:29;3.30;;;3.00;;
10537;SDS011;5317;49.048;8.468;2022-12-16T12:04:22;3.30;;;3.00;;
10537;SDS011;5317;49.048;8.468;2022-12-16T12:07:16;3.70;;;3.27;;
10537;SDS011;5317;49.048;8.468;2022-12-16T12:13:49;3.73;;;3.30;;
10537;SDS011;5317;49.048;8.468;2022-12-16T12:16:49;3.50;;;3.20;;
10537;SDS011;5317;49.048;8.468;2022-12-16T12:19:51;3.33;;;3.03;;
10537;SDS011;5317;49.048;8.468;2022-12-16T12:22:52;3.53;;;3.17;;
10537;SDS011;5317;49.048;8.468;2022-12-16T12:25:46;4.73;;;3.33;;
10537;SDS011;5317;49.048;8.468;2022-12-16T12:28:45;3.53;;;3.23;;
10537;SDS011;5317;49.048;8.468;2022-12-16T12:31:40;3.23;;;2.97;;
10537;SDS011;5317;49.048;8.468;2022-12-16T12:34:39;3.13;;;2.87;;
10537;SDS011;5317;49.048;8.468;2022-12-16T12:37:35;4.50;;;3.33;;
10537;SDS011;5317;49.048;8.468;2022-12-16T12:40:36;3.37;;;3.07;;
10537;SDS011;5317;49.048;8.468;2022-12-16T12:43:40;3.40;;;3.10;;
10537;SDS011;5317;49.048;8.468;2022-12-16T12:46:42;3.57;;;2.80;;
10537;SDS011;5317;49.048;8.468;2022-12-16T12:49:38;3.30;;;3.00;;
10537;SDS011;5317;49.048;8.468;2022-12-16T12:52:37;3.23;;;2.93;;
10537;SDS011;5317;49.048;8.468;2022-12-16T12:55:48;3.17;;;2.80;;
10537;SDS011;5317;49.048;8.468;2022-12-16T12:58:52;3.10;;;2.80;;
10537;SDS011;5317;49.048;8.468;2022-12-16T13:01:43;3.50;;;3.20;;
10537;SDS011;5317;49.048;8.468;2022-12-16T13:04:29;3.10;;;2.80;;
10537;SDS011;5317;49.048;8.468;2022-12-16T13:07:16;3.07;;;2.77;;
10537;SDS011;5317;49.048;8.468;2022-12-16T13:10:12;4.20;;;3.23;;
10537;SDS011;5317;49.048;8.468;2022-12-16T13:13:27;4.27;;;2.93;;
10537;SDS011;5317;49.048;8.468;2022-12-16T13:19:42;3.97;;;3.37;;
10537;SDS011;5317;49.048;8.468;2022-12-16T13:22:29;3.87;;;2.70;;
10537;SDS011;5317;49.048;8.468;2022-12-16T13:25:34;3.80;;;2.83;;
10537;SDS011;5317;49.048;8.468;2022-12-16T13:28:26;3.43;;;2.90;;
10537;SDS011;5317;49.048;8.468;2022-12-16T13:31:15;4.47;;;3.07;;
10537;SDS011;5317;49.048;8.468;2022-12-16T13:34:04;3.00;;;2.73;;
10537;SDS011;5317;49.048;8.468;2022-12-16T13:37:04;3.20;;;2.73;;
10537;SDS011;5317;49.048;8.468;2022-12-16T13:40:02;4.33;;;3.13;;
10537;SDS011;5317;49.048;8.468;2022-12-16T13:42:56;2.90;;;2.70;;
10537;SDS011;5317;49.048;8.468;2022-12-16T13:45:41;3.20;;;2.90;;
10537;SDS011;5317;49.048;8.468;2022-12-16T13:48:31;3.33;;;2.70;;
10537;SDS011;5317;49.048;8.468;2022-12-16T13:54:45;3.10;;;2.80;;
10537;SDS011;5317;49.048;8.468;2022-12-16T13:57:57;2.93;;;2.73;;
10537;SDS011;5317;49.048;8.468;2022-12-16T14:00:53;3.10;;;2.80;;
10537;SDS011;5317;49.048;8.468;2022-12-16T14:03:49;3.10;;;2.80;;
10537;SDS011;5317;49.048;8.468;2022-12-16T14:06:36;2.60;;;2.40;;
10537;SDS011;5317;49.048;8.468;2022-12-16T14:09:28;2.97;;;2.50;;
10537;SDS011;5317;49.048;8.468;2022-12-16T14:12:33;2.80;;;2.60;;
10537;SDS011;5317;49.048;8.468;2022-12-16T14:15:30;2.83;;;2.63;;
10537;SDS011;5317;49.048;8.468;2022-12-16T14:18:32;3.03;;;2.73;;
10537;SDS011;5317;49.048;8.468;2022-12-16T14:21:30;4.27;;;3.20;;
10537;SDS011;5317;49.048;8.468;2022-12-16T14:24:23;3.00;;;2.70;;
10537;SDS011;5317;49.048;8.468;2022-12-16T14:27:15;2.70;;;2.50;;
10537;SDS011;5317;49.048;8.468;2022-12-16T14:30:10;2.97;;;2.67;;
10537;SDS011;5317;49.048;8.468;2022-12-16T14:33:13;2.67;;;2.47;;
10537;SDS011;5317;49.048;8.468;2022-12-16T14:36:00;2.83;;;2.63;;
10537;SDS011;5317;49.048;8.468;2022-12-16T14:38:46;2.77;;;2.50;;
10537;SDS011;5317;49.048;8.468;2022-12-16T14:41:32;2.60;;;2.40;;
10537;SDS011;5317;49.048;8.468;2022-12-16T14:44:19;2.90;;;2.60;;
10537;SDS011;5317;49.048;8.468;2022-12-16T14:47:11;2.87;;;2.60;;
10537;SDS011;5317;49.048;8.468;2022-12-16T14:50:00;2.73;;;2.53;;
10537;SDS011;5317;49.048;8.468;2022-12-16T14:53:03;3.00;;;2.70;;
10537;SDS011;5317;49.048;8.468;2022-12-16T14:56:07;2.77;;;2.57;;
10537;SDS011;5317;49.048;8.468;2022-12-16T14:59:08;2.60;;;2.40;;
10537;SDS011;5317;49.048;8.468;2022-12-16T15:01:59;2.57;;;2.33;;
10537;SDS011;5317;49.048;8.468;2022-12-16T15:05:04;3.07;;;2.60;;
10537;SDS011;5317;49.048;8.468;2022-12-16T15:07:55;2.83;;;2.53;;
10537;SDS011;5317;49.048;8.468;2022-12-16T15:10:42;2.63;;;2.43;;
10537;SDS011;5317;49.048;8.468;2022-12-16T15:13:27;3.00;;;2.70;;
10537;SDS011;5317;49.048;8.468;2022-12-16T15:16:14;2.30;;;2.10;;
10537;SDS011;5317;49.048;8.468;2022-12-16T15:19:10;2.77;;;2.50;;
10537;SDS011;5317;49.048;8.468;2022-12-16T15:22:04;2.40;;;2.20;;
10537;SDS011;5317;49.048;8.468;2022-12-16T15:24:56;2.63;;;2.40;;
10537;SDS011;5317;49.048;8.468;2022-12-16T15:27:51;2.43;;;2.23;;
10537;SDS011;5317;49.048;8.468;2022-12-16T15:30:38;2.30;;;2.10;;
10537;SDS011;5317;49.048;8.468;2022-12-16T15:33:27;2.67;;;2.47;;
10537;SDS011;5317;49.048;8.468;2022-12-16T15:36:20;2.47;;;2.27;;
10537;SDS011;5317;49.048;8.468;2022-12-16T15:39:14;2.60;;;2.40;;
10537;SDS011;5317;49.048;8.468;2022-12-16T15:42:04;2.27;;;2.07;;
10537;SDS011;5317;49.048;8.468;2022-12-16T15:45:02;2.60;;;2.40;;
10537;SDS011;5317;49.048;8.468;2022-12-16T15:47:58;2.63;;;2.40;;
10537;SDS011;5317;49.048;8.468;2022-12-16T15:50:54;2.47;;;2.27;;
10537;SDS011;5317;49.048;8.468;2022-12-16T15:53:39;3.43;;;2.80;;
10537;SDS011;5317;49.048;8.468;2022-12-16T15:56:26;2.53;;;2.33;;
10537;SDS011;5317;49.048;8.468;2022-12-16T15:59:25;2.63;;;2.43;;
10537;SDS011;5317;49.048;8.468;2022-12-16T16:02:25;2.80;;;2.60;;
10537;SDS011;5317;49.048;8.468;2022-12-16T16:05:13;2.60;;;2.40;;
10537;SDS011;5317;49.048;8.468;2022-12-16T16:08:02;2.60;;;2.40;;
10537;SDS011;5317;49.048;8.468;2022-12-16T16:10:48;3.23;;;2.57;;
10537;SDS011;5317;49.048;8.468;2022-12-16T16:13:33;2.87;;;2.67;;
10537;SDS011;5317;49.048;8.468;2022-12-16T16:16:18;2.57;;;2.37;;
10537;SDS011;5317;49.048;8.468;2022-12-16T16:19:03;2.70;;;2.50;;
10537;SDS011;5317;49.048;8.468;2022-12-16T16:21:56;2.70;;;2.50;;
10537;SDS011;5317;49.048;8.468;2022-12-16T16:24:41;2.60;;;2.23;;
10537;SDS011;5317;49.048;8.468;2022-12-16T16:27:27;2.50;;;2.30;;
10537;SDS011;5317;49.048;8.468;2022-12-16T16:30:26;2.60;;;2.40;;
10537;SDS011;5317;49.048;8.468;2022-12-16T16:33:11;2.97;;;2.30;;
10537;SDS011;5317;49.048;8.468;2022-12-16T16:35:56;2.93;;;2.40;;
10537;SDS011;5317;49.048;8.468;2022-12-16T16:38:40;2.90;;;2.60;;
10537;SDS011;5317;49.048;8.468;2022-12-16T16:41:25;2.50;;;2.30;;
10537;SDS011;5317;49.048;8.468;2022-12-16T16:44:12;2.50;;;2.30;;
10537;SDS011;5317;49.048;8.468;2022-12-16T16:46:56;2.50;;;2.30;;
10537;SDS011;5317;49.048;8.468;2022-12-16T16:49:43;2.37;;;2.17;;
10537;SDS011;5317;49.048;8.468;2022-12-16T16:52:30;2.83;;;2.50;;
10537;SDS011;5317;49.048;8.468;2022-12-16T16:55:16;3.03;;;2.67;;
10537;SDS011;5317;49.048;8.468;2022-12-16T16:58:04;2.97;;;2.77;;
10537;SDS011;5317;49.048;8.468;2022-12-16T17:00:56;2.80;;;2.50;;
10537;SDS011;5317;49.048;8.468;2022-12-16T17:03:41;2.50;;;2.30;;